sensor_id;sensor_type;location;lat;lon;timestamp;P1;durP1;ratioP1;P2;durP2;ratioP2
48795;SDS011;34607;48.520;-1.330;2023-10-09T07:38:58;10.93;;;6.90;;
48795;SDS011;34607;48.520;-1.330;2023-10-09T07:41:29;8.27;;;6.07;;
48795;SDS011;34607;48.520;-1.330;2023-10-09T07:44:04;8.02;;;6.13;;
48795;SDS011;34607;48.520;-1.330;2023-10-09T07:47:02;10.98;;;5.65;;
48795;SDS011;34607;48.520;-1.330;2023-10-09T07:49:48;12.43;;;6.15;;
48795;SDS011;34607;48.520;-1.330;2023-10-09T07:52:16;8.43;;;5.80;;
48795;SDS011;34607;48.520;-1.330;2023-10-09T07:54:49;7.75;;;6.57;;
48795;SDS011;34607;48.520;-1.330;2023-10-09T07:57:31;9.98;;;7.28;;
48795;SDS011;34607;48.520;-1.330;2023-10-09T08:00:05;6.78;;;6.07;;
48795;SDS011;34607;48.520;-1.330;2023-10-09T08:02:59;12.57;;;6.20;;
48795;SDS011;34607;48.520;-1.330;2023-10-09T08:05:28;11.50;;;7.38;;
48795;SDS011;34607;48.520;-1.330;2023-10-09T08:08:00;9.57;;;6.15;;
48795;SDS011;34607;48.520;-1.330;2023-10-09T08:10:43;9.02;;;7.05;;
48795;SDS011;34607;48.520;-1.330;2023-10-09T08:13:24;10.40;;;6.38;;
48795;SDS011;34607;48.520;-1.330;2023-10-09T08:16:14;9.68;;;6.80;;
48795;SDS011;34607;48.520;-1.330;2023-10-09T08:18:47;8.75;;;6.20;;
48795;SDS011;34607;48.520;-1.330;2023-10-09T08:21:16;8.57;;;5.88;;
48795;SDS011;34607;48.520;-1.330;2023-10-09T08:24:06;10.95;;;5.93;;
48795;SDS011;34607;48.520;-1.330;2023-10-09T08:26:54;13.57;;;6.63;;
48795;SDS011;34607;48.520;-1.330;2023-10-09T08:29:44;10.38;;;6.35;;
48795;SDS011;34607;48.520;-1.330;2023-10-09T08:32:12;8.80;;;6.28;;
48795;SDS011;34607;48.520;-1.330;2023-10-09T08:35:04;14.40;;;7.03;;
48795;SDS011;34607;48.520;-1.330;2023-10-09T08:37:44;11.10;;;6.68;;
48795;SDS011;34607;48.520;-1.330;2023-10-09T08:40:14;12.80;;;6.95;;
48795;SDS011;34607;48.520;-1.330;2023-10-09T08:42:48;8.82;;;5.80;;
48795;SDS011;34607;48.520;-1.330;2023-10-09T08:45:21;9.63;;;6.18;;
48795;SDS011;34607;48.520;-1.330;2023-10-09T08:47:53;7.70;;;4.82;;
48795;SDS011;34607;48.520;-1.330;2023-10-09T08:50:21;6.78;;;5.00;;
48795;SDS011;34607;48.520;-1.330;2023-10-09T08:52:48;12.75;;;5.40;;
48795;SDS011;34607;48.520;-1.330;2023-10-09T08:55:16;8.60;;;5.57;;
48795;SDS011;34607;48.520;-1.330;2023-10-09T08:57:44;7.97;;;4.55;;
48795;SDS011;34607;48.520;-1.330;2023-10-09T09:00:17;8.68;;;5.97;;
48795;SDS011;34607;48.520;-1.330;2023-10-09T09:02:47;10.77;;;5.45;;
48795;SDS011;34607;48.520;-1.330;2023-10-09T09:05:17;9.65;;;6.25;;
48795;SDS011;34607;48.520;-1.330;2023-10-09T09:07:45;10.00;;;5.38;;
48795;SDS011;34607;48.520;-1.330;2023-10-09T09:10:13;9.70;;;6.05;;
48795;SDS011;34607;48.520;-1.330;2023-10-09T09:12:46;10.20;;;6.10;;
48795;SDS011;34607;48.520;-1.330;2023-10-09T09:15:20;7.30;;;5.47;;
48795;SDS011;34607;48.520;-1.330;2023-10-09T09:17:52;8.50;;;5.47;;
48795;SDS011;34607;48.520;-1.330;2023-10-09T09:20:31;10.60;;;7.03;;
48795;SDS011;34607;48.520;-1.330;2023-10-09T09:23:02;7.22;;;4.95;;
48795;SDS011;34607;48.520;-1.330;2023-10-09T09:25:39;12.80;;;4.90;;
48795;SDS011;34607;48.520;-1.330;2023-10-09T09:28:10;7.25;;;4.68;;
48795;SDS011;34607;48.520;-1.330;2023-10-09T09:30:46;9.20;;;6.38;;
48795;SDS011;34607;48.520;-1.330;2023-10-09T09:33:17;10.25;;;7.70;;
48795;SDS011;34607;48.520;-1.330;2023-10-09T09:35:58;9.00;;;6.13;;
48795;SDS011;34607;48.520;-1.330;2023-10-09T09:38:28;10.77;;;5.75;;
48795;SDS011;34607;48.520;-1.330;2023-10-09T09:41:01;7.30;;;4.78;;
48795;SDS011;34607;48.520;-1.330;2023-10-09T09:43:32;8.23;;;4.50;;
48795;SDS011;34607;48.520;-1.330;2023-10-09T09:46:07;11.55;;;4.90;;
48795;SDS011;34607;48.520;-1.330;2023-10-09T09:48:37;7.97;;;4.95;;
48795;SDS011;34607;48.520;-1.330;2023-10-09T09:51:10;7.28;;;4.50;;
48795;SDS011;34607;48.520;-1.330;2023-10-09T09:53:39;9.10;;;4.28;;
48795;SDS011;34607;48.520;-1.330;2023-10-09T09:56:07;5.70;;;3.92;;
48795;SDS011;34607;48.520;-1.330;2023-10-09T09:58:42;6.93;;;4.47;;
48795;SDS011;34607;48.520;-1.330;2023-10-09T10:01:12;5.97;;;3.92;;
48795;SDS011;34607;48.520;-1.330;2023-10-09T10:03:51;7.93;;;4.30;;
48795;SDS011;34607;48.520;-1.330;2023-10-09T10:06:23;6.00;;;4.67;;
48795;SDS011;34607;48.520;-1.330;2023-10-09T10:08:52;5.15;;;3.10;;
48795;SDS011;34607;48.520;-1.330;2023-10-09T10:14:09;7.78;;;4.55;;
48795;SDS011;34607;48.520;-1.330;2023-10-09T10:17:05;6.82;;;3.40;;
48795;SDS011;34607;48.520;-1.330;2023-10-09T10:19:58;4.13;;;2.95;;
48795;SDS011;34607;48.520;-1.330;2023-10-09T10:22:38;5.05;;;3.65;;
48795;SDS011;34607;48.520;-1.330;2023-10-09T10:25:05;7.10;;;3.72;;
48795;SDS011;34607;48.520;-1.330;2023-10-09T10:27:35;5.80;;;3.00;;
48795;SDS011;34607;48.520;-1.330;2023-10-09T10:30:28;5.93;;;3.47;;
48795;SDS011;34607;48.520;-1.330;2023-10-09T10:33:03;5.05;;;3.00;;
48795;SDS011;34607;48.520;-1.330;2023-10-09T10:35:37;4.82;;;3.55;;
48795;SDS011;34607;48.520;-1.330;2023-10-09T10:41:12;7.38;;;3.30;;
48795;SDS011;34607;48.520;-1.330;2023-10-09T10:43:41;5.80;;;3.38;;
48795;SDS011;34607;48.520;-1.330;2023-10-09T10:46:20;4.55;;;3.40;;
48795;SDS011;34607;48.520;-1.330;2023-10-09T10:49:05;6.73;;;3.80;;
48795;SDS011;34607;48.520;-1.330;2023-10-09T10:51:45;6.88;;;3.80;;
48795;SDS011;34607;48.520;-1.330;2023-10-09T10:54:20;5.93;;;3.83;;
48795;SDS011;34607;48.520;-1.330;2023-10-09T10:57:13;7.70;;;3.42;;
48795;SDS011;34607;48.520;-1.330;2023-10-09T10:59:45;7.75;;;4.18;;
48795;SDS011;34607;48.520;-1.330;2023-10-09T11:02:12;4.75;;;3.42;;
48795;SDS011;34607;48.520;-1.330;2023-10-09T11:04:49;5.78;;;3.45;;
48795;SDS011;34607;48.520;-1.330;2023-10-09T11:07:39;5.22;;;3.25;;
48795;SDS011;34607;48.520;-1.330;2023-10-09T11:10:07;5.30;;;3.05;;
48795;SDS011;34607;48.520;-1.330;2023-10-09T11:12:42;6.75;;;3.83;;
48795;SDS011;34607;48.520;-1.330;2023-10-09T11:15:31;5.45;;;2.95;;
48795;SDS011;34607;48.520;-1.330;2023-10-09T11:18:09;5.05;;;4.47;;
48795;SDS011;34607;48.520;-1.330;2023-10-09T11:20:48;7.68;;;4.10;;
48795;SDS011;34607;48.520;-1.330;2023-10-09T11:23:43;7.10;;;4.07;;
48795;SDS011;34607;48.520;-1.330;2023-10-09T11:26:23;4.88;;;3.60;;
48795;SDS011;34607;48.520;-1.330;2023-10-09T11:29:08;8.70;;;4.20;;
48795;SDS011;34607;48.520;-1.330;2023-10-09T11:31:39;6.07;;;4.03;;
48795;SDS011;34607;48.520;-1.330;2023-10-09T11:34:17;8.43;;;5.63;;
48795;SDS011;34607;48.520;-1.330;2023-10-09T11:36:56;7.15;;;3.75;;
48795;SDS011;34607;48.520;-1.330;2023-10-09T11:39:25;6.97;;;3.35;;
48795;SDS011;34607;48.520;-1.330;2023-10-09T11:42:00;6.35;;;3.00;;
48795;SDS011;34607;48.520;-1.330;2023-10-09T11:44:41;6.57;;;3.42;;
48795;SDS011;34607;48.520;-1.330;2023-10-09T11:47:10;4.88;;;3.35;;
48795;SDS011;34607;48.520;-1.330;2023-10-09T11:49:56;5.25;;;2.90;;
48795;SDS011;34607;48.520;-1.330;2023-10-09T11:52:54;5.38;;;3.45;;
48795;SDS011;34607;48.520;-1.330;2023-10-09T11:55:22;5.15;;;3.60;;
48795;SDS011;34607;48.520;-1.330;2023-10-09T11:57:50;6.28;;;3.65;;
48795;SDS011;34607;48.520;-1.330;2023-10-09T12:00:17;6.00;;;3.67;;
48795;SDS011;34607;48.520;-1.330;2023-10-09T12:02:54;4.45;;;2.97;;
48795;SDS011;34607;48.520;-1.330;2023-10-09T12:05:30;15.43;;;3.97;;
48795;SDS011;34607;48.520;-1.330;2023-10-09T12:08:01;5.85;;;3.80;;
48795;SDS011;34607;48.520;-1.330;2023-10-09T12:10:33;8.05;;;3.45;;
48795;SDS011;34607;48.520;-1.330;2023-10-09T12:13:03;5.68;;;3.28;;
48795;SDS011;34607;48.520;-1.330;2023-10-09T12:15:32;4.88;;;3.35;;
48795;SDS011;34607;48.520;-1.330;2023-10-09T12:18:04;9.88;;;3.53;;
48795;SDS011;34607;48.520;-1.330;2023-10-09T12:20:34;4.22;;;2.88;;
48795;SDS011;34607;48.520;-1.330;2023-10-09T12:23:03;4.18;;;3.28;;
48795;SDS011;34607;48.520;-1.330;2023-10-09T12:25:31;6.40;;;3.35;;
48795;SDS011;34607;48.520;-1.330;2023-10-09T12:28:00;9.30;;;4.35;;
48795;SDS011;34607;48.520;-1.330;2023-10-09T12:30:28;5.60;;;3.70;;
48795;SDS011;34607;48.520;-1.330;2023-10-09T12:32:56;5.32;;;3.15;;
48795;SDS011;34607;48.520;-1.330;2023-10-09T12:35:24;6.07;;;3.50;;
48795;SDS011;34607;48.520;-1.330;2023-10-09T12:37:51;4.78;;;3.03;;
48795;SDS011;34607;48.520;-1.330;2023-10-09T12:40:21;4.57;;;2.95;;
48795;SDS011;34607;48.520;-1.330;2023-10-09T12:42:54;5.15;;;3.05;;
48795;SDS011;34607;48.520;-1.330;2023-10-09T12:45:24;6.80;;;2.95;;
48795;SDS011;34607;48.520;-1.330;2023-10-09T12:47:53;6.85;;;3.47;;
48795;SDS011;34607;48.520;-1.330;2023-10-09T12:50:24;5.47;;;3.00;;
48795;SDS011;34607;48.520;-1.330;2023-10-09T12:52:57;8.63;;;3.53;;
48795;SDS011;34607;48.520;-1.330;2023-10-09T12:55:28;5.15;;;3.13;;
48795;SDS011;34607;48.520;-1.330;2023-10-09T12:58:01;9.32;;;2.83;;
48795;SDS011;34607;48.520;-1.330;2023-10-09T13:00:32;7.28;;;3.40;;
48795;SDS011;34607;48.520;-1.330;2023-10-09T13:03:05;6.57;;;3.22;;
48795;SDS011;34607;48.520;-1.330;2023-10-09T13:05:43;7.28;;;3.40;;
48795;SDS011;34607;48.520;-1.330;2023-10-09T13:08:18;5.03;;;3.42;;
48795;SDS011;34607;48.520;-1.330;2023-10-09T13:10:48;4.78;;;2.92;;
48795;SDS011;34607;48.520;-1.330;2023-10-09T13:13:24;4.13;;;2.92;;
48795;SDS011;34607;48.520;-1.330;2023-10-09T13:16:06;3.03;;;2.17;;
48795;SDS011;34607;48.520;-1.330;2023-10-09T13:18:36;3.67;;;2.67;;
48795;SDS011;34607;48.520;-1.330;2023-10-09T13:21:04;7.28;;;2.83;;
48795;SDS011;34607;48.520;-1.330;2023-10-09T13:23:32;4.75;;;3.40;;
48795;SDS011;34607;48.520;-1.330;2023-10-09T13:26:06;4.70;;;2.92;;
48795;SDS011;34607;48.520;-1.330;2023-10-09T13:28:44;4.32;;;2.80;;
48795;SDS011;34607;48.520;-1.330;2023-10-09T13:31:12;4.78;;;3.33;;
48795;SDS011;34607;48.520;-1.330;2023-10-09T13:33:41;6.00;;;3.03;;
48795;SDS011;34607;48.520;-1.330;2023-10-09T13:36:08;4.93;;;3.25;;
48795;SDS011;34607;48.520;-1.330;2023-10-09T13:38:43;4.80;;;3.15;;
48795;SDS011;34607;48.520;-1.330;2023-10-09T13:41:12;5.90;;;3.08;;
48795;SDS011;34607;48.520;-1.330;2023-10-09T13:43:43;6.53;;;3.03;;
48795;SDS011;34607;48.520;-1.330;2023-10-09T13:46:10;7.90;;;3.80;;
48795;SDS011;34607;48.520;-1.330;2023-10-09T13:48:39;7.20;;;3.83;;
48795;SDS011;34607;48.520;-1.330;2023-10-09T13:51:08;5.90;;;3.60;;
48795;SDS011;34607;48.520;-1.330;2023-10-09T13:53:40;6.13;;;3.75;;
48795;SDS011;34607;48.520;-1.330;2023-10-09T13:56:15;5.53;;;4.10;;
48795;SDS011;34607;48.520;-1.330;2023-10-09T13:58:48;6.53;;;4.13;;
48795;SDS011;34607;48.520;-1.330;2023-10-09T14:01:16;6.30;;;4.43;;
48795;SDS011;34607;48.520;-1.330;2023-10-09T14:03:55;5.50;;;3.70;;
48795;SDS011;34607;48.520;-1.330;2023-10-09T14:06:23;7.63;;;3.97;;
48795;SDS011;34607;48.520;-1.330;2023-10-09T14:08:57;6.45;;;3.78;;
48795;SDS011;34607;48.520;-1.330;2023-10-09T14:11:26;7.20;;;3.60;;
48795;SDS011;34607;48.520;-1.330;2023-10-09T14:13:53;4.80;;;3.65;;
48795;SDS011;34607;48.520;-1.330;2023-10-09T14:16:21;8.93;;;3.90;;
48795;SDS011;34607;48.520;-1.330;2023-10-09T14:18:53;5.25;;;4.32;;
48795;SDS011;34607;48.520;-1.330;2023-10-09T14:21:25;8.90;;;4.07;;
48795;SDS011;34607;48.520;-1.330;2023-10-09T14:23:53;4.68;;;4.07;;
48795;SDS011;34607;48.520;-1.330;2023-10-09T14:26:24;6.43;;;5.03;;
48795;SDS011;34607;48.520;-1.330;2023-10-09T14:28:53;7.28;;;3.80;;
48795;SDS011;34607;48.520;-1.330;2023-10-09T14:31:22;6.18;;;3.70;;
48795;SDS011;34607;48.520;-1.330;2023-10-09T14:33:53;7.72;;;3.83;;
48795;SDS011;34607;48.520;-1.330;2023-10-09T14:36:21;7.72;;;4.30;;
48795;SDS011;34607;48.520;-1.330;2023-10-09T14:38:49;6.43;;;3.75;;
48795;SDS011;34607;48.520;-1.330;2023-10-09T14:41:21;8.93;;;2.72;;
48795;SDS011;34607;48.520;-1.330;2023-10-09T14:43:51;5.65;;;3.15;;
48795;SDS011;34607;48.520;-1.330;2023-10-09T14:46:19;3.90;;;3.38;;
48795;SDS011;34607;48.520;-1.330;2023-10-09T14:48:51;5.40;;;3.53;;
48795;SDS011;34607;48.520;-1.330;2023-10-09T14:51:20;4.95;;;3.45;;
48795;SDS011;34607;48.520;-1.330;2023-10-09T14:53:53;5.03;;;3.63;;
48795;SDS011;34607;48.520;-1.330;2023-10-09T14:56:23;6.18;;;3.30;;
48795;SDS011;34607;48.520;-1.330;2023-10-09T14:58:56;5.90;;;3.67;;
48795;SDS011;34607;48.520;-1.330;2023-10-09T15:01:23;5.60;;;2.90;;
48795;SDS011;34607;48.520;-1.330;2023-10-09T15:03:54;6.20;;;3.50;;
48795;SDS011;34607;48.520;-1.330;2023-10-09T15:06:25;5.07;;;3.22;;
48795;SDS011;34607;48.520;-1.330;2023-10-09T15:08:55;5.90;;;4.03;;
48795;SDS011;34607;48.520;-1.330;2023-10-09T15:11:23;7.47;;;3.38;;
48795;SDS011;34607;48.520;-1.330;2023-10-09T15:13:51;6.03;;;3.47;;
48795;SDS011;34607;48.520;-1.330;2023-10-09T15:16:21;6.10;;;3.45;;
48795;SDS011;34607;48.520;-1.330;2023-10-09T15:18:52;5.25;;;3.58;;
48795;SDS011;34607;48.520;-1.330;2023-10-09T15:21:29;5.80;;;3.67;;
48795;SDS011;34607;48.520;-1.330;2023-10-09T15:23:59;6.63;;;3.70;;
48795;SDS011;34607;48.520;-1.330;2023-10-09T15:26:26;10.50;;;3.80;;
48795;SDS011;34607;48.520;-1.330;2023-10-09T15:28:59;7.63;;;3.53;;
48795;SDS011;34607;48.520;-1.330;2023-10-09T15:31:30;6.35;;;3.63;;
48795;SDS011;34607;48.520;-1.330;2023-10-09T15:33:58;6.68;;;3.65;;
48795;SDS011;34607;48.520;-1.330;2023-10-09T15:36:26;6.90;;;3.42;;
48795;SDS011;34607;48.520;-1.330;2023-10-09T15:38:57;6.53;;;3.88;;
48795;SDS011;34607;48.520;-1.330;2023-10-09T15:41:26;6.47;;;4.13;;
48795;SDS011;34607;48.520;-1.330;2023-10-09T15:43:55;5.97;;;4.00;;
48795;SDS011;34607;48.520;-1.330;2023-10-09T15:46:24;9.07;;;3.60;;
48795;SDS011;34607;48.520;-1.330;2023-10-09T15:48:53;7.18;;;3.92;;
48795;SDS011;34607;48.520;-1.330;2023-10-09T15:51:21;7.82;;;4.68;;
48795;SDS011;34607;48.520;-1.330;2023-10-09T15:53:48;6.63;;;3.72;;
48795;SDS011;34607;48.520;-1.330;2023-10-09T15:56:17;5.15;;;3.47;;
48795;SDS011;34607;48.520;-1.330;2023-10-09T15:58:46;7.28;;;3.78;;
48795;SDS011;34607;48.520;-1.330;2023-10-09T16:01:14;9.15;;;3.53;;
48795;SDS011;34607;48.520;-1.330;2023-10-09T16:03:44;5.90;;;4.25;;
48795;SDS011;34607;48.520;-1.330;2023-10-09T16:06:14;5.20;;;3.78;;
48795;SDS011;34607;48.520;-1.330;2023-10-09T16:08:42;6.60;;;3.85;;
48795;SDS011;34607;48.520;-1.330;2023-10-09T16:11:11;5.72;;;3.90;;
48795;SDS011;34607;48.520;-1.330;2023-10-09T16:13:42;6.88;;;3.85;;
48795;SDS011;34607;48.520;-1.330;2023-10-09T16:16:09;6.53;;;4.10;;
48795;SDS011;34607;48.520;-1.330;2023-10-09T16:18:38;8.23;;;4.85;;
48795;SDS011;34607;48.520;-1.330;2023-10-09T16:21:06;6.50;;;4.10;;
48795;SDS011;34607;48.520;-1.330;2023-10-09T16:23:38;27.33;;;12.30;;
48795;SDS011;34607;48.520;-1.330;2023-10-09T16:26:07;44.70;;;15.32;;
48795;SDS011;34607;48.520;-1.330;2023-10-09T16:28:35;201.27;;;72.20;;
48795;SDS011;34607;48.520;-1.330;2023-10-09T16:31:02;156.18;;;64.43;;
48795;SDS011;34607;48.520;-1.330;2023-10-09T16:33:32;183.82;;;77.57;;
48795;SDS011;34607;48.520;-1.330;2023-10-09T16:35:59;143.15;;;58.72;;
48795;SDS011;34607;48.520;-1.330;2023-10-09T16:38:26;116.80;;;48.92;;
48795;SDS011;34607;48.520;-1.330;2023-10-09T16:40:55;111.30;;;44.78;;
48795;SDS011;34607;48.520;-1.330;2023-10-09T16:43:24;55.28;;;24.55;;
48795;SDS011;34607;48.520;-1.330;2023-10-09T16:45:52;48.60;;;20.73;;
48795;SDS011;34607;48.520;-1.330;2023-10-09T16:48:23;29.17;;;12.93;;
48795;SDS011;34607;48.520;-1.330;2023-10-09T16:50:53;25.88;;;10.93;;
48795;SDS011;34607;48.520;-1.330;2023-10-09T16:53:24;14.23;;;7.72;;
48795;SDS011;34607;48.520;-1.330;2023-10-09T16:55:51;15.30;;;7.32;;
48795;SDS011;34607;48.520;-1.330;2023-10-09T16:58:24;12.68;;;5.45;;
48795;SDS011;34607;48.520;-1.330;2023-10-09T17:00:51;10.57;;;5.78;;
48795;SDS011;34607;48.520;-1.330;2023-10-09T17:03:21;10.00;;;5.20;;
48795;SDS011;34607;48.520;-1.330;2023-10-09T17:05:53;7.88;;;4.55;;
48795;SDS011;34607;48.520;-1.330;2023-10-09T17:08:23;9.60;;;5.40;;
48795;SDS011;34607;48.520;-1.330;2023-10-09T17:10:55;8.70;;;4.93;;
48795;SDS011;34607;48.520;-1.330;2023-10-09T17:13:24;7.53;;;4.70;;
48795;SDS011;34607;48.520;-1.330;2023-10-09T17:15:52;6.38;;;4.22;;
48795;SDS011;34607;48.520;-1.330;2023-10-09T17:18:20;7.22;;;4.47;;
48795;SDS011;34607;48.520;-1.330;2023-10-09T17:20:50;9.52;;;4.97;;
48795;SDS011;34607;48.520;-1.330;2023-10-09T17:23:19;7.22;;;4.55;;
48795;SDS011;34607;48.520;-1.330;2023-10-09T17:25:47;12.20;;;6.80;;
48795;SDS011;34607;48.520;-1.330;2023-10-09T17:28:22;12.07;;;9.60;;
48795;SDS011;34607;48.520;-1.330;2023-10-09T17:30:58;15.32;;;8.15;;
48795;SDS011;34607;48.520;-1.330;2023-10-09T17:33:26;13.73;;;7.30;;
48795;SDS011;34607;48.520;-1.330;2023-10-09T17:35:53;10.82;;;5.75;;
48795;SDS011;34607;48.520;-1.330;2023-10-09T17:38:21;11.13;;;5.60;;
48795;SDS011;34607;48.520;-1.330;2023-10-09T17:40:49;8.98;;;5.50;;
48795;SDS011;34607;48.520;-1.330;2023-10-09T17:43:18;9.18;;;4.57;;
48795;SDS011;34607;48.520;-1.330;2023-10-09T17:45:46;8.90;;;5.93;;
48795;SDS011;34607;48.520;-1.330;2023-10-09T17:48:15;6.75;;;4.50;;
48795;SDS011;34607;48.520;-1.330;2023-10-09T17:50:43;10.73;;;5.40;;
48795;SDS011;34607;48.520;-1.330;2023-10-09T17:53:11;8.98;;;4.68;;
48795;SDS011;34607;48.520;-1.330;2023-10-09T17:55:38;11.55;;;5.07;;
48795;SDS011;34607;48.520;-1.330;2023-10-09T17:58:06;10.38;;;5.25;;
48795;SDS011;34607;48.520;-1.330;2023-10-09T18:00:36;10.38;;;4.70;;
48795;SDS011;34607;48.520;-1.330;2023-10-09T18:03:05;7.32;;;4.30;;
48795;SDS011;34607;48.520;-1.330;2023-10-09T18:05:33;6.25;;;4.53;;
48795;SDS011;34607;48.520;-1.330;2023-10-09T18:08:01;9.25;;;6.68;;
48795;SDS011;34607;48.520;-1.330;2023-10-09T18:10:32;14.20;;;9.18;;
48795;SDS011;34607;48.520;-1.330;2023-10-09T18:12:59;15.23;;;9.25;;
48795;SDS011;34607;48.520;-1.330;2023-10-09T18:15:27;20.60;;;10.75;;
48795;SDS011;34607;48.520;-1.330;2023-10-09T18:17:55;16.08;;;11.60;;
48795;SDS011;34607;48.520;-1.330;2023-10-09T18:20:22;15.10;;;10.20;;
48795;SDS011;34607;48.520;-1.330;2023-10-09T18:22:50;15.70;;;11.55;;
48795;SDS011;34607;48.520;-1.330;2023-10-09T18:25:18;14.07;;;9.48;;
48795;SDS011;34607;48.520;-1.330;2023-10-09T18:27:45;14.13;;;7.55;;
48795;SDS011;34607;48.520;-1.330;2023-10-09T18:30:12;8.27;;;6.35;;
48795;SDS011;34607;48.520;-1.330;2023-10-09T18:32:39;11.07;;;6.38;;
48795;SDS011;34607;48.520;-1.330;2023-10-09T18:35:07;11.88;;;6.38;;
48795;SDS011;34607;48.520;-1.330;2023-10-09T18:37:36;9.65;;;4.75;;
48795;SDS011;34607;48.520;-1.330;2023-10-09T18:40:09;12.68;;;5.22;;
48795;SDS011;34607;48.520;-1.330;2023-10-09T18:42:37;9.10;;;5.15;;
48795;SDS011;34607;48.520;-1.330;2023-10-09T18:45:06;7.97;;;4.68;;
48795;SDS011;34607;48.520;-1.330;2023-10-09T18:47:35;10.43;;;5.18;;
48795;SDS011;34607;48.520;-1.330;2023-10-09T18:50:05;8.60;;;4.05;;
48795;SDS011;34607;48.520;-1.330;2023-10-09T18:52:37;10.30;;;4.35;;
48795;SDS011;34607;48.520;-1.330;2023-10-09T18:55:09;10.05;;;5.45;;
48795;SDS011;34607;48.520;-1.330;2023-10-09T18:57:40;14.77;;;5.55;;
48795;SDS011;34607;48.520;-1.330;2023-10-09T19:00:08;8.13;;;5.10;;
48795;SDS011;34607;48.520;-1.330;2023-10-09T19:02:36;9.38;;;5.45;;
48795;SDS011;34607;48.520;-1.330;2023-10-09T19:05:04;10.20;;;5.70;;
48795;SDS011;34607;48.520;-1.330;2023-10-09T19:07:33;14.25;;;5.90;;
48795;SDS011;34607;48.520;-1.330;2023-10-09T19:10:01;9.52;;;4.93;;
48795;SDS011;34607;48.520;-1.330;2023-10-09T19:12:35;11.13;;;6.13;;
48795;SDS011;34607;48.520;-1.330;2023-10-09T19:15:02;11.07;;;5.25;;
48795;SDS011;34607;48.520;-1.330;2023-10-09T19:17:32;7.15;;;5.30;;
48795;SDS011;34607;48.520;-1.330;2023-10-09T19:20:00;9.00;;;5.35;;
48795;SDS011;34607;48.520;-1.330;2023-10-09T19:22:29;6.95;;;4.65;;
48795;SDS011;34607;48.520;-1.330;2023-10-09T19:24:56;10.25;;;4.90;;
48795;SDS011;34607;48.520;-1.330;2023-10-09T19:27:24;12.00;;;5.32;;
48795;SDS011;34607;48.520;-1.330;2023-10-09T19:29:57;10.98;;;5.57;;
48795;SDS011;34607;48.520;-1.330;2023-10-09T19:32:26;10.32;;;5.00;;
48795;SDS011;34607;48.520;-1.330;2023-10-09T19:34:53;7.03;;;4.55;;
48795;SDS011;34607;48.520;-1.330;2023-10-09T19:37:20;11.48;;;5.53;;
48795;SDS011;34607;48.520;-1.330;2023-10-09T19:39:48;11.07;;;5.38;;
48795;SDS011;34607;48.520;-1.330;2023-10-09T19:42:16;10.82;;;4.75;;
48795;SDS011;34607;48.520;-1.330;2023-10-09T19:44:46;14.60;;;5.95;;
48795;SDS011;34607;48.520;-1.330;2023-10-09T19:47:14;11.00;;;6.13;;
48795;SDS011;34607;48.520;-1.330;2023-10-09T19:49:42;9.63;;;6.07;;
48795;SDS011;34607;48.520;-1.330;2023-10-09T19:52:09;11.10;;;6.15;;
48795;SDS011;34607;48.520;-1.330;2023-10-09T19:54:36;12.02;;;6.38;;
48795;SDS011;34607;48.520;-1.330;2023-10-09T19:57:04;11.23;;;5.75;;
48795;SDS011;34607;48.520;-1.330;2023-10-09T19:59:34;9.10;;;5.75;;
48795;SDS011;34607;48.520;-1.330;2023-10-09T20:02:02;11.43;;;6.75;;
48795;SDS011;34607;48.520;-1.330;2023-10-09T20:04:31;16.92;;;6.30;;
48795;SDS011;34607;48.520;-1.330;2023-10-09T20:06:58;11.95;;;6.88;;
48795;SDS011;34607;48.520;-1.330;2023-10-09T20:09:26;10.50;;;6.32;;
48795;SDS011;34607;48.520;-1.330;2023-10-09T20:11:53;11.98;;;6.60;;
48795;SDS011;34607;48.520;-1.330;2023-10-09T20:14:22;11.38;;;7.28;;
48795;SDS011;34607;48.520;-1.330;2023-10-09T20:16:49;13.82;;;7.13;;
48795;SDS011;34607;48.520;-1.330;2023-10-09T20:19:16;10.93;;;6.65;;
48795;SDS011;34607;48.520;-1.330;2023-10-09T20:21:46;15.20;;;6.57;;
48795;SDS011;34607;48.520;-1.330;2023-10-09T20:24:13;11.40;;;6.25;;
48795;SDS011;34607;48.520;-1.330;2023-10-09T20:26:40;13.15;;;6.35;;
48795;SDS011;34607;48.520;-1.330;2023-10-09T20:29:08;13.15;;;6.75;;
48795;SDS011;34607;48.520;-1.330;2023-10-09T20:31:38;17.63;;;6.60;;
48795;SDS011;34607;48.520;-1.330;2023-10-09T20:34:06;12.10;;;6.95;;
48795;SDS011;34607;48.520;-1.330;2023-10-09T20:36:37;12.45;;;6.95;;
48795;SDS011;34607;48.520;-1.330;2023-10-09T20:39:08;11.52;;;6.63;;
48795;SDS011;34607;48.520;-1.330;2023-10-09T20:41:37;13.00;;;6.90;;
48795;SDS011;34607;48.520;-1.330;2023-10-09T20:44:04;11.88;;;6.88;;
48795;SDS011;34607;48.520;-1.330;2023-10-09T20:46:32;11.80;;;5.93;;
48795;SDS011;34607;48.520;-1.330;2023-10-09T20:49:00;17.08;;;7.15;;
48795;SDS011;34607;48.520;-1.330;2023-10-09T20:51:27;10.32;;;6.75;;
48795;SDS011;34607;48.520;-1.330;2023-10-09T20:53:57;13.98;;;7.90;;
48795;SDS011;34607;48.520;-1.330;2023-10-09T20:56:25;13.18;;;7.03;;
48795;SDS011;34607;48.520;-1.330;2023-10-09T20:58:53;10.65;;;6.05;;
48795;SDS011;34607;48.520;-1.330;2023-10-09T21:01:20;11.07;;;6.30;;
48795;SDS011;34607;48.520;-1.330;2023-10-09T21:03:49;9.38;;;6.05;;
48795;SDS011;34607;48.520;-1.330;2023-10-09T21:06:17;9.95;;;6.78;;
48795;SDS011;34607;48.520;-1.330;2023-10-09T21:08:46;9.45;;;6.43;;
48795;SDS011;34607;48.520;-1.330;2023-10-09T21:11:14;13.88;;;6.82;;
48795;SDS011;34607;48.520;-1.330;2023-10-09T21:13:43;15.43;;;7.10;;
48795;SDS011;34607;48.520;-1.330;2023-10-09T21:16:11;10.18;;;6.60;;
48795;SDS011;34607;48.520;-1.330;2023-10-09T21:18:40;11.57;;;6.32;;
